Latest Weather Observations for Bedout Island

IDW60801

Issued at 10:33 pm WST Monday 29 November 2021 (issued every 10 minutes, with the page automatically refreshed every 10 minutes)

About weather observations | Map of weather stations | Latest weather observations for WA | Other Formats
Station Details ID: 004100 Name: BEDOUT ISLAND Lat: -19.59 Lon: 119.10 Height: 8.6 m
Data from the previous 72 hours. | See also: Recent months at Bedout Island
Date/Time
WST
Temp
°C
App
Temp
°C
Dew
Point
°C
Rel
Hum
%
Delta-T
°C
Wind Press
QNH
hPa
Press
MSL
hPa
Rain since
9am
mm
Dir  Spd
km/h
Gust
km/h
Spd
kts
Gust
kts
29/10:30pm 27.4 30.4 26.7 96 0.5 W 24 30 13 16 1009.0 1009.0 -
29/10:00pm 27.6 29.8 26.7 95 0.6 WNW 28 32 15 17 1008.7 1008.7 -
29/09:30pm 27.6 30.6 26.7 95 0.6 WNW 24 28 13 15 1008.8 1008.8 -
29/09:00pm 27.8 30.0 26.6 93 0.9 WNW 28 32 15 17 1008.5 1008.5 -
29/08:30pm 27.8 30.2 26.4 92 1.0 WNW 26 30 14 16 1008.4 1008.4 -
29/08:00pm 28.1 30.1 26.3 90 1.3 WNW 28 32 15 17 1008.1 1008.1 -
29/07:30pm 28.1 30.3 25.5 86 1.8 WNW 24 28 13 15 1007.8 1007.8 -
29/07:00pm 28.0 29.8 25.4 86 1.8 WNW 26 30 14 16 1007.3 1007.3 -
29/06:30pm 28.4 29.8 25.4 84 2.1 NW 28 32 15 17 1006.9 1006.9 -
29/06:00pm 28.9 30.4 24.9 79 2.8 NW 26 30 14 16 1006.6 1006.6 -
29/05:30pm 29.4 30.5 24.9 77 3.2 WNW 28 33 15 18 1006.2 1006.2 -
29/05:00pm 29.9 30.5 25.4 77 3.2 NW 32 37 17 20 1006.1 1006.1 -
29/04:30pm 30.3 30.9 25.4 75 3.5 WNW 32 37 17 20 1006.2 1006.2 -
29/04:00pm 30.8 31.8 25.4 73 3.8 NW 30 33 16 18 1006.2 1006.2 -
29/03:30pm 31.5 33.0 25.6 71 4.2 WNW 28 32 15 17 1006.5 1006.5 -
29/03:00pm 31.7 33.8 25.3 69 4.5 NW 24 28 13 15 1007.0 1007.0 -
29/02:30pm 32.1 34.6 24.7 65 5.2 WNW 20 24 11 13 1007.2 1007.2 -
29/02:00pm 32.2 34.5 24.5 64 5.4 NW 20 24 11 13 1007.6 1007.6 -
29/01:30pm 32.0 34.4 24.6 65 5.2 NW 20 22 11 12 1007.9 1007.9 -
29/01:00pm 32.4 35.4 24.7 64 5.4 NW 17 20 9 11 1008.2 1008.2 -
29/12:30pm 31.6 34.2 24.0 64 5.3 WNW 17 19 9 10 1008.4 1008.4 -
29/12:00pm 31.4 34.3 23.8 64 5.3 W 15 17 8 9 1008.6 1008.6 -
29/11:30am 31.0 33.9 23.9 66 4.9 W 15 17 8 9 1008.9 1008.9 -
29/11:00am 31.1 34.5 24.7 68 4.5 W 15 17 8 9 1009.3 1009.3 -
29/10:30am 30.7 34.2 24.8 71 4.1 W 15 17 8 9 1009.8 1009.8 -
29/10:00am 30.1 33.8 25.2 75 3.5 WNW 15 17 8 9 1010.0 1010.0 -
29/09:30am 29.5 33.9 25.7 80 2.7 W 13 15 7 8 1010.1 1010.1 -
29/09:00am 29.4 36.1 26.0 82 2.4 W 2 6 1 3 1010.4 1010.4 -
29/08:30am 28.9 34.5 26.3 86 1.9 WSW 9 11 5 6 1010.5 1010.5 -
29/08:00am 28.6 34.0 27.2 92 1.0 S 13 17 7 9 1010.6 1010.6 -
29/07:30am 28.1 33.8 28.1 100 0.0 SSE 15 20 8 11 1010.7 1010.7 -
29/07:00am 27.4 31.6 27.4 100 0.0 SE 20 24 11 13 1010.8 1010.8 -
29/06:30am 27.1 31.7 27.1 100 0.0 SSE 17 20 9 11 1010.5 1010.5 -
29/06:00am 26.7 30.5 26.7 100 0.0 S 20 26 11 14 1010.2 1010.2 -
29/05:30am 26.0 31.4 26.0 100 0.0 S 9 11 5 6 1009.4 1009.4 -
29/05:00am 25.9 31.6 25.9 100 0.0 SSE 7 11 4 6 1008.8 1008.8 -
29/04:30am 26.2 33.4 26.2 100 0.0 CALM 0 0 0 0 1008.4 1008.4 -
29/04:00am 26.3 33.2 26.3 100 0.0 NNW 2 6 1 3 1008.3 1008.3 -
29/03:30am 26.6 34.1 26.6 100 0.0 CALM 0 0 0 0 1008.2 1008.2 -
29/03:00am 26.2 32.1 26.2 100 0.0 W 7 9 4 5 1007.9 1007.9 -
29/02:30am 26.4 33.8 26.4 100 0.0 CALM 0 6 0 3 1008.2 1008.2 -
29/02:00am 26.7 32.6 26.7 100 0.0 SW 9 11 5 6 1007.8 1007.8 -
29/01:30am 26.7 31.8 26.7 100 0.0 SSW 13 15 7 8 1007.8 1007.8 -
29/01:00am 26.9 32.1 26.9 100 0.0 SW 13 17 7 9 1007.9 1007.9 -
29/12:30am 27.1 32.1 27.1 100 0.0 WSW 15 19 8 10 1008.1 1008.1 -
29/12:00am 27.1 32.1 27.1 100 0.0 WNW 15 17 8 9 1008.4 1008.4 -
 
Date/Time
WST
Temp
°C
App
Temp
°C
Dew
Point
°C
Rel
Hum
%
Delta-T
°C
Wind Press
QNH
hPa
Press
MSL
hPa
Rain since
9am
mm
Dir  Spd
km/h
Gust
km/h
Spd
kts
Gust
kts
28/11:30pm 27.3 31.5 27.3 100 0.0 WNW 20 24 11 13 1008.3 1008.3 -
28/11:00pm 27.3 31.5 27.3 100 0.0 WNW 20 24 11 13 1008.5 1008.5 -
28/10:30pm 27.4 31.3 27.4 100 0.0 WNW 22 28 12 15 1008.4 1008.4 -
28/10:00pm 27.4 30.9 27.4 100 0.0 NW 24 30 13 16 1008.3 1008.3 -
28/09:30pm 27.5 31.1 27.5 100 0.0 NW 24 30 13 16 1008.2 1008.2 -
28/09:00pm 27.4 30.7 27.2 99 0.1 NW 24 30 13 16 1008.0 1008.0 -
28/08:30pm 27.5 30.5 27.2 98 0.2 NW 26 32 14 17 1007.7 1007.7 -
28/08:00pm 27.6 30.5 27.1 97 0.4 NW 26 32 14 17 1007.5 1007.5 -
28/07:30pm 27.6 - 26.5 94 0.8 - - - - - 1007.3 1007.3 -
28/07:00pm 27.6 29.3 26.4 93 0.9 NW 30 35 16 19 1006.9 1006.9 -
28/06:30pm 27.8 29.8 26.4 92 1.0 NNW 28 35 15 19 1006.7 1006.7 -
28/06:00pm 28.1 30.1 26.3 90 1.3 NNW 28 33 15 18 1006.4 1006.4 -
28/05:30pm 28.6 30.9 26.2 87 1.7 NNW 26 32 14 17 1006.4 1006.4 -
28/05:00pm 29.1 32.0 25.9 83 2.3 N 22 28 12 15 1006.5 1006.5 -
28/04:30pm 29.3 32.5 25.9 82 2.4 N 20 24 11 13 1006.7 1006.7 -
28/04:00pm 29.8 32.8 26.2 81 2.6 N 22 26 12 14 1006.7 1006.7 -
28/03:30pm 29.7 32.2 25.4 78 3.0 N 22 28 12 15 1006.9 1006.9 -
28/03:00pm 30.1 32.8 25.6 77 3.2 N 22 24 12 13 1007.2 1007.2 -
28/02:30pm 30.6 33.3 25.7 75 3.5 NNE 22 26 12 14 1007.5 1007.5 -
28/02:00pm 30.9 33.8 25.9 74 3.6 NNE 22 24 12 13 1007.7 1007.7 -
28/01:30pm 30.8 33.1 24.4 68 4.5 NNE 20 26 11 14 1007.7 1007.7 -
28/01:00pm 30.9 32.6 25.3 72 4.0 NNE 26 30 14 16 1008.1 1008.1 -
28/12:30pm 30.9 32.3 24.8 70 4.3 NNE 26 30 14 16 1008.4 1008.4 -
28/12:00pm 30.4 31.5 25.5 75 3.5 NE 30 32 16 17 1008.5 1008.5 -
28/11:30am 30.7 32.2 25.5 74 3.7 NE 28 32 15 17 1008.9 1008.9 -
28/11:00am 30.1 30.4 25.2 75 3.5 ENE 33 35 18 19 1009.1 1009.1 -
28/10:30am 30.0 28.6 23.7 69 4.4 ENE 37 43 20 23 1009.2 1009.2 -
28/10:00am 29.8 28.4 24.2 72 3.9 E 39 44 21 24 1009.2 1009.2 -
28/09:30am 29.9 28.5 24.3 72 3.9 E 39 44 21 24 1009.2 1009.2 -
28/09:00am 29.9 28.6 24.5 73 3.8 E 39 46 21 25 1009.1 1009.1 -
28/08:30am 29.6 28.0 24.5 74 3.6 E 41 46 22 25 1009.0 1009.0 -
28/08:00am 29.7 27.0 23.6 69 4.2 ESE 44 52 24 28 1008.9 1008.9 -
28/07:30am 29.8 26.1 22.5 65 5.0 ESE 46 54 25 29 1008.5 1008.5 -
28/07:00am 29.7 24.0 19.4 54 6.7 ESE 48 56 26 30 1008.2 1008.2 -
28/06:30am 29.7 25.7 17.5 48 7.7 ESE 35 44 19 24 1008.1 1008.1 -
28/06:00am 29.2 26.1 18.3 51 7.0 SE 32 37 17 20 1008.0 1008.0 -
28/05:30am 27.6 26.2 19.7 62 5.1 SSE 26 30 14 16 1007.9 1007.9 -
28/05:00am 27.4 28.3 23.4 79 2.7 SW 24 28 13 15 1007.6 1007.6 -
28/04:30am 27.2 33.5 24.7 86 1.7 CALM 0 4 0 2 1007.7 1007.7 -
28/04:00am 26.8 32.9 24.5 87 1.6 CALM 0 4 0 2 1007.3 1007.3 -
28/03:30am 26.8 32.9 24.5 87 1.6 CALM 0 2 0 1 1007.2 1007.2 -
28/03:00am 26.9 33.4 25.1 90 1.3 CALM 0 6 0 3 1007.2 1007.2 -
28/02:30am 26.9 33.4 25.1 90 1.3 CALM 0 0 0 0 1007.2 1007.2 -
28/02:00am 27.0 33.5 25.0 89 1.4 CALM 0 4 0 2 1007.2 1007.2 -
28/01:30am 26.7 33.1 24.9 90 1.3 CALM 0 0 0 0 1007.3 1007.3 -
28/01:00am 27.1 33.6 25.1 89 1.4 CALM 0 2 0 1 1007.5 1007.5 -
28/12:30am 27.3 33.4 24.4 84 2.0 CALM 0 2 0 1 1007.6 1007.6 -
28/12:00am 27.3 33.0 23.7 81 2.5 CALM 0 2 0 1 1007.8 1007.8 -
 
Date/Time
WST
Temp
°C
App
Temp
°C
Dew
Point
°C
Rel
Hum
%
Delta-T
°C
Wind Press
QNH
hPa
Press
MSL
hPa
Rain since
9am
mm
Dir  Spd
km/h
Gust
km/h
Spd
kts
Gust
kts
27/11:30pm 27.3 33.0 23.7 81 2.5 CALM 0 4 0 2 1007.8 1007.8 -
27/11:00pm 27.3 32.7 23.3 79 2.7 CALM 0 2 0 1 1008.0 1008.0 -
27/10:30pm 27.5 33.1 23.5 79 2.7 CALM 0 9 0 5 1008.0 1008.0 -
27/10:00pm 27.7 33.7 24.3 82 2.4 CALM 0 4 0 2 1008.0 1008.0 -
27/09:30pm 27.9 33.1 23.5 77 3.0 NW 2 6 1 3 1007.7 1007.7 -
27/09:00pm 28.2 33.6 23.3 75 3.4 CALM 0 4 0 2 1007.3 1007.3 -
27/08:30pm 28.3 32.9 22.5 71 3.9 NNW 2 6 1 3 1007.1 1007.1 -
27/08:00pm 28.4 33.3 22.4 70 4.1 CALM 0 4 0 2 1006.9 1006.9 -
27/07:30pm 29.6 34.5 22.3 65 4.9 CALM 0 4 0 2 1006.5 1006.5 -
27/07:00pm 29.7 33.7 20.5 57 6.1 CALM 0 6 0 3 1006.2 1006.2 -
27/06:30pm 29.4 33.3 22.6 67 4.6 WNW 6 9 3 5 1005.9 1005.9 -
27/06:00pm 31.3 34.3 20.9 54 7.0 N 6 7 3 4 1005.6 1005.6 -
27/05:30pm 33.0 35.6 20.5 47 8.3 N 7 11 4 6 1005.6 1005.6 -
27/05:00pm 33.8 33.1 14.3 31 12.0 N 11 13 6 7 1005.5 1005.5 -
27/04:30pm 33.3 33.4 16.6 36 10.6 N 11 15 6 8 1005.6 1005.6 -
27/04:00pm 32.5 33.0 18.3 43 9.2 NNE 13 15 7 8 1005.6 1005.6 -
27/03:30pm 32.6 34.2 20.8 49 7.9 NNE 13 15 7 8 1005.8 1005.8 -
27/03:00pm 32.1 33.8 21.6 53 7.1 NNE 15 17 8 9 1006.2 1006.2 -
27/02:30pm 32.8 34.3 22.0 53 7.4 NE 17 19 9 10 1006.4 1006.4 -
27/02:00pm 32.4 33.8 21.9 54 7.1 ENE 17 19 9 10 1006.8 1006.8 -
27/01:30pm 32.7 33.9 22.2 54 7.2 ENE 19 20 10 11 1007.1 1007.1 -
27/01:00pm 32.8 33.7 22.0 53 7.4 ENE 20 24 11 13 1007.4 1007.4 -
27/12:30pm 33.2 33.2 21.7 51 7.8 E 24 26 13 14 1007.7 1007.7 -
27/12:00pm 32.7 32.1 21.2 50 7.8 ENE 26 30 14 16 1008.1 1008.1 -
27/11:30am 32.6 32.1 21.5 52 7.5 E 26 30 14 16 1008.4 1008.4 -
27/11:00am 32.7 31.5 21.5 51 7.6 ESE 30 33 16 18 1008.7 1008.7 -
27/10:30am 33.1 31.4 21.3 50 8.0 ESE 32 35 17 19 1009.0 1009.0 -
27/10:00am 32.1 30.2 21.0 52 7.5 ESE 32 35 17 19 1009.3 1009.3 -
27/09:30am 31.9 29.6 20.2 50 7.8 ESE 32 37 17 20 1009.5 1009.5 -
27/09:00am 31.2 28.0 19.5 49 7.7 ESE 35 39 19 21 1009.6 1009.6 -
27/08:30am 30.6 26.4 19.0 50 7.5 ESE 39 43 21 23 1009.6 1009.6 -
27/08:00am 30.0 26.9 18.8 51 7.3 ESE 33 39 18 21 1009.6 1009.6 -
27/07:30am 29.1 27.7 19.7 57 6.1 ESE 26 30 14 16 1009.8 1009.8 -
27/07:00am 29.0 26.9 18.1 51 7.0 SE 26 30 14 16 1009.6 1009.6 -
27/06:30am 28.4 27.1 19.1 57 6.0 SSE 24 30 13 16 1009.5 1009.5 -
27/06:00am 27.5 28.0 22.0 72 3.7 S 22 24 12 13 1009.2 1009.2 -
27/05:30am 27.0 27.4 22.4 76 3.1 S 24 28 13 15 1008.8 1008.8 -
27/05:00am 26.9 26.7 22.1 75 3.2 SSW 26 33 14 18 1008.5 1008.5 -
27/04:30am 27.0 25.9 22.4 76 3.1 SSW 32 35 17 19 1008.1 1008.1 -
27/04:00am 27.1 26.7 22.3 75 3.2 S 28 37 15 20 1008.1 1008.1 -
27/03:30am 27.1 26.8 21.8 73 3.5 S 26 30 14 16 1008.0 1008.0 -
27/03:00am 27.0 26.5 21.5 72 3.7 S 26 32 14 17 1007.9 1007.9 -
27/02:30am 27.4 25.9 21.7 71 3.8 S 32 37 17 20 1007.8 1007.8 -
27/02:00am 27.2 26.3 22.2 74 3.4 S 30 35 16 19 1007.8 1007.8 -
27/01:30am 27.3 26.8 22.9 77 3.0 S 30 35 16 19 1008.1 1008.1 -
27/01:00am 27.3 27.3 23.1 78 2.9 S 28 35 15 19 1008.2 1008.2 -
27/12:30am 27.2 27.8 23.4 80 2.6 SSW 26 32 14 17 1008.5 1008.5 -
27/12:00am 26.9 27.7 23.2 80 2.5 SSW 24 28 13 15 1008.6 1008.6 -
 
Date/Time
WST
Temp
°C
App
Temp
°C
Dew
Point
°C
Rel
Hum
%
Delta-T
°C
Wind Press
QNH
hPa
Press
MSL
hPa
Rain since
9am
mm
Dir  Spd
km/h
Gust
km/h
Spd
kts
Gust
kts
26/11:30pm 26.8 28.3 23.1 80 2.5 SSW 20 22 11 12 1008.8 1008.8 -
26/11:00pm 26.7 29.0 23.4 82 2.3 SW 17 20 9 11 1009.0 1009.0 -

Other formats

Comma delimited format used in spreadsheet applications
http://www.bom.gov.au/fwo/IDW60801/IDW60801.94310.axf

JavaScript Object Notation format (JSON) in row-major order
http://www.bom.gov.au/fwo/IDW60801/IDW60801.94310.json

Data quality

Most of these data are generated automatically and are frequently updated. Quality checks on data are not normally performed. It is possible for incorrect values to appear. Refer to information at About Latest Weather Observations and please check the disclaimer before using these data.